createdAt,value
2024-04-09T00:01:53.120Z,99196.98
2024-04-09T00:04:19.511Z,99199.70
2024-04-09T00:06:46.023Z,99203.17
2024-04-09T00:09:12.414Z,99198.88
2024-04-09T00:11:38.946Z,99198.43
2024-04-09T00:14:05.385Z,99198.71
2024-04-09T00:16:31.698Z,99198.83
2024-04-09T00:18:58.209Z,99192.98
2024-04-09T00:21:25.063Z,99193.71
2024-04-09T00:23:51.494Z,99195.63
2024-04-09T00:26:17.780Z,99193.80
2024-04-09T00:28:44.078Z,99192.45
2024-04-09T00:31:10.379Z,99191.29
2024-04-09T00:33:36.820Z,99192.03
2024-04-09T00:36:03.388Z,99192.93
2024-04-09T00:38:29.712Z,99191.38
2024-04-09T00:40:56.012Z,99193.26
2024-04-09T00:43:22.308Z,99193.83
2024-04-09T00:45:48.625Z,99189.15
2024-04-09T00:48:15.092Z,99188.60
2024-04-09T00:50:41.545Z,99187.05
2024-04-09T00:53:07.840Z,99185.94
2024-04-09T00:55:34.171Z,99182.92
2024-04-09T00:58:00.536Z,99184.91
2024-04-09T01:00:26.892Z,99186.16
2024-04-09T01:02:53.318Z,99186.74
2024-04-09T01:05:19.645Z,99193.00
2024-04-09T01:07:45.963Z,99194.70
2024-04-09T01:10:12.306Z,99192.02
2024-04-09T01:12:38.739Z,99194.41
2024-04-09T01:15:05.170Z,99194.81
2024-04-09T01:17:31.764Z,99196.59
2024-04-09T01:19:58.233Z,99200.83
2024-04-09T01:22:24.553Z,99202.77
2024-04-09T01:24:50.861Z,99203.15
2024-04-09T01:27:17.224Z,99199.67
2024-04-09T01:29:43.650Z,99200.88
2024-04-09T01:32:09.979Z,99202.12
2024-04-09T01:34:36.401Z,99204.60
2024-04-09T01:37:02.838Z,99205.55
2024-04-09T01:39:29.302Z,99204.42
2024-04-09T01:41:55.853Z,99202.23
2024-04-09T01:44:22.175Z,99204.25
2024-04-09T01:46:48.523Z,99209.52
2024-04-09T01:49:14.836Z,99207.75
2024-04-09T01:51:41.157Z,99206.48
2024-04-09T01:54:07.486Z,99206.01
2024-04-09T01:56:33.803Z,99201.69
2024-04-09T01:59:00.114Z,99200.18
2024-04-09T02:01:26.458Z,99201.91
2024-04-09T02:03:52.862Z,99205.25
2024-04-09T02:06:19.295Z,99205.80
2024-04-09T02:08:45.736Z,99209.08
2024-04-09T02:11:12.101Z,99207.54
2024-04-09T02:13:38.429Z,99211.63
2024-04-09T02:16:04.849Z,99211.13
2024-04-09T02:18:31.166Z,99212.14
2024-04-09T02:20:57.522Z,99214.89
2024-04-09T02:23:23.870Z,99217.04
2024-04-09T02:25:50.170Z,99213.00
2024-04-09T02:28:16.491Z,99211.45
2024-04-09T02:30:42.930Z,99210.86
2024-04-09T02:33:09.470Z,99206.14
2024-04-09T02:35:35.956Z,99204.48
2024-04-09T02:38:02.298Z,99204.77
2024-04-09T02:40:28.609Z,99207.23
2024-04-09T02:42:54.941Z,99209.66
2024-04-09T02:45:21.327Z,99211.30
2024-04-09T02:47:47.669Z,99211.77
2024-04-09T02:50:14.014Z,99213.57
2024-04-09T02:52:40.326Z,99217.42
2024-04-09T02:55:06.636Z,99219.71
2024-04-09T02:57:32.972Z,99218.57
2024-04-09T02:59:59.373Z,99223.06
2024-04-09T03:02:25.733Z,99224.47
2024-04-09T03:04:52.081Z,99224.42
2024-04-09T03:07:18.394Z,99225.30
2024-04-09T03:09:44.781Z,99229.33
2024-04-09T03:12:11.139Z,99228.88
2024-04-09T03:14:37.452Z,99230.05
2024-04-09T03:17:03.749Z,99227.79
2024-04-09T03:19:30.056Z,99232.59
2024-04-09T03:21:56.377Z,99233.08
2024-04-09T03:24:22.758Z,99237.07
2024-04-09T03:26:49.058Z,99235.52
2024-04-09T03:29:15.380Z,99231.02
2024-04-09T03:31:41.676Z,99231.81
2024-04-09T03:34:08.138Z,99235.30
2024-04-09T03:36:34.627Z,99235.09
2024-04-09T03:39:01.212Z,99233.68
2024-04-09T03:41:27.593Z,99234.08
2024-04-09T03:43:53.890Z,99236.02
2024-04-09T03:46:20.181Z,99232.55
2024-04-09T03:48:46.829Z,99233.27
2024-04-09T03:51:13.554Z,99231.58
2024-04-09T03:53:39.969Z,99232.94
2024-04-09T03:56:06.287Z,99235.45
2024-04-09T03:58:32.683Z,99234.75
2024-04-09T04:00:59.166Z,99234.86
2024-04-09T04:03:25.688Z,99238.44
2024-04-09T04:05:52.042Z,99234.60
2024-04-09T04:08:18.352Z,99243.11
2024-04-09T04:10:44.688Z,99241.29
2024-04-09T04:13:10.994Z,99244.52
2024-04-09T04:15:39.228Z,99242.91
2024-04-09T04:18:07.251Z,99240.44
2024-04-09T04:20:33.717Z,99241.19
2024-04-09T04:23:00.052Z,99237.08
2024-04-09T04:25:26.370Z,99235.86
2024-04-09T04:27:52.682Z,99238.69
2024-04-09T04:30:18.997Z,99240.66
2024-04-09T04:32:45.365Z,99240.18
2024-04-09T04:35:11.700Z,99238.02
2024-04-09T04:37:38.011Z,99240.05
2024-04-09T04:40:04.342Z,99240.80
2024-04-09T04:42:30.705Z,99240.48
2024-04-09T04:44:57.091Z,99239.48
2024-04-09T04:47:23.562Z,99239.52
2024-04-09T04:49:50.230Z,99240.64
2024-04-09T04:52:16.720Z,99238.66
2024-04-09T04:54:43.065Z,99236.67
2024-04-09T04:57:09.498Z,99232.08
2024-04-09T04:59:35.833Z,99235.84
2024-04-09T05:02:02.236Z,99234.17
2024-04-09T05:04:28.616Z,99240.39
2024-04-09T05:06:54.997Z,99236.98
2024-04-09T05:09:21.463Z,99240.06
2024-04-09T05:11:47.848Z,99234.36
2024-04-09T05:14:14.179Z,99236.91
2024-04-09T05:16:40.503Z,99237.23
2024-04-09T05:19:06.964Z,99235.56
2024-04-09T05:21:33.471Z,99239.68
2024-04-09T05:23:59.851Z,99235.67
2024-04-09T05:26:26.178Z,99238.33
2024-04-09T05:28:52.491Z,99237.01
2024-04-09T05:31:18.817Z,99236.48
2024-04-09T05:33:45.161Z,99238.56
2024-04-09T05:36:11.538Z,99237.30
2024-04-09T05:38:38.499Z,99240.61
2024-04-09T05:41:05.066Z,99237.95
2024-04-09T05:43:31.384Z,99239.52
2024-04-09T05:45:57.777Z,99245.65
2024-04-09T05:48:24.283Z,99242.98
2024-04-09T05:50:50.764Z,99245.02
2024-04-09T05:53:17.083Z,99245.80
2024-04-09T05:55:43.392Z,99246.44
2024-04-09T05:58:09.698Z,99243.17
2024-04-09T06:00:36.196Z,99240.05
2024-04-09T06:03:02.678Z,99237.63
2024-04-09T06:05:29.030Z,99233.69
2024-04-09T06:07:55.396Z,99228.52
2024-04-09T06:10:21.716Z,99229.87
2024-04-09T06:12:48.297Z,99234.76
2024-04-09T06:15:14.826Z,99236.42
2024-04-09T06:17:41.353Z,99236.17
2024-04-09T06:20:07.951Z,99236.63
2024-04-09T06:22:34.396Z,99234.61
2024-04-09T06:25:00.695Z,99235.52
2024-04-09T06:27:27.015Z,99238.48
2024-04-09T06:29:53.421Z,99237.78
2024-04-09T06:32:19.757Z,99240.53
2024-04-09T06:34:46.109Z,99241.89
2024-04-09T06:37:12.469Z,99239.74
2024-04-09T06:39:39.032Z,99242.15
2024-04-09T06:42:05.597Z,99243.64
2024-04-09T06:44:31.986Z,99239.80
2024-04-09T06:46:58.303Z,99235.92
2024-04-09T06:49:24.805Z,99239.86
2024-04-09T06:51:51.270Z,99238.52
2024-04-09T06:54:17.661Z,99235.84
2024-04-09T06:56:43.989Z,99237.90
2024-04-09T06:59:10.285Z,99239.65
2024-04-09T07:01:36.739Z,99239.60
2024-04-09T07:04:03.298Z,99239.68
2024-04-09T07:06:29.725Z,99240.22
2024-04-09T07:08:56.118Z,99238.64
2024-04-09T07:11:22.497Z,99236.09
2024-04-09T07:13:48.951Z,99236.57
2024-04-09T07:16:15.254Z,99234.67
2024-04-09T07:18:41.640Z,99232.34
2024-04-09T07:21:07.984Z,99229.20
2024-04-09T07:23:34.312Z,99231.93
2024-04-09T07:26:00.651Z,99234.30
2024-04-09T07:28:26.957Z,99229.84
2024-04-09T07:30:53.370Z,99229.09
2024-04-09T07:33:19.818Z,99227.30
2024-04-09T07:35:46.255Z,99231.58
2024-04-09T07:38:12.568Z,99235.15
2024-04-09T07:40:38.864Z,99236.98
2024-04-09T07:43:05.170Z,99238.17
2024-04-09T07:45:31.530Z,99235.48
2024-04-09T07:47:57.917Z,99234.66
2024-04-09T07:50:24.268Z,99233.68
2024-04-09T07:52:50.584Z,99234.32
2024-04-09T07:55:16.907Z,99235.20
2024-04-09T07:57:43.340Z,99232.73
2024-04-09T08:00:09.869Z,99233.67
2024-04-09T08:02:36.257Z,99231.14
2024-04-09T08:05:02.952Z,99228.88
2024-04-09T08:07:29.634Z,99230.77
2024-04-09T08:09:56.114Z,99230.38
2024-04-09T08:12:22.670Z,99232.14
2024-04-09T08:14:49.270Z,99233.72
2024-04-09T08:17:15.652Z,99232.08
2024-04-09T08:19:42.074Z,99231.73
2024-04-09T08:22:08.563Z,99226.80
2024-04-09T08:24:34.995Z,99226.45
2024-04-09T08:27:01.397Z,99223.64
2024-04-09T08:29:27.734Z,99219.38
2024-04-09T08:31:54.171Z,99219.69
2024-04-09T08:34:20.737Z,99211.27
2024-04-09T08:36:47.361Z,99209.86
2024-04-09T08:39:14.054Z,99217.07
2024-04-09T08:41:40.687Z,99214.70
2024-04-09T08:44:07.123Z,99215.23
2024-04-09T08:46:33.871Z,99216.29
2024-04-09T08:49:00.626Z,99214.33
2024-04-09T08:51:27.258Z,99208.33
2024-04-09T08:53:53.804Z,99207.79
2024-04-09T08:56:20.111Z,99205.07
2024-04-09T08:58:46.410Z,99208.42
2024-04-09T09:01:12.763Z,99207.73
2024-04-09T09:03:39.260Z,99207.27
2024-04-09T09:06:05.897Z,99206.68
2024-04-09T09:08:32.393Z,99206.20
2024-04-09T09:10:58.752Z,99202.27
2024-04-09T09:13:25.120Z,99201.98
2024-04-09T09:15:51.609Z,99199.95
2024-04-09T09:18:18.115Z,99197.52
2024-04-09T09:20:44.555Z,99199.29
2024-04-09T09:23:10.911Z,99200.96
2024-04-09T09:25:37.238Z,99200.61
2024-04-09T09:28:03.590Z,99200.55
2024-04-09T09:30:29.920Z,99196.89
2024-04-09T09:32:56.303Z,99190.59
2024-04-09T09:35:22.630Z,99188.10
2024-04-09T09:37:48.925Z,99184.77
2024-04-09T09:40:15.297Z,99184.67
2024-04-09T09:42:41.729Z,99183.17
2024-04-09T09:45:08.254Z,99177.43
2024-04-09T09:47:34.726Z,99177.04
2024-04-09T09:50:10.298Z,99177.05
2024-04-09T09:52:40.168Z,99174.65
2024-04-09T09:55:10.052Z,99170.92
2024-04-09T09:57:36.902Z,99171.27
2024-04-09T10:00:03.359Z,99168.90
2024-04-09T10:02:29.713Z,99176.45
2024-04-09T10:04:56.170Z,99178.45
2024-04-09T10:07:22.556Z,99174.71
2024-04-09T10:09:49.013Z,99175.30
2024-04-09T10:12:16.497Z,99179.33
2024-04-09T10:14:43.005Z,99178.90
2024-04-09T10:17:09.403Z,99172.84
2024-04-09T10:19:35.941Z,99169.40
2024-04-09T10:22:02.362Z,99167.32
2024-04-09T10:24:28.766Z,99167.70
2024-04-09T10:26:55.252Z,99167.58
2024-04-09T10:29:21.560Z,99163.14
2024-04-09T10:31:47.881Z,99162.74
2024-04-09T10:34:14.341Z,99160.43
2024-04-09T10:36:40.805Z,99156.12
2024-04-09T10:39:07.175Z,99154.00
2024-04-09T10:41:33.518Z,99149.61
2024-04-09T10:43:59.822Z,99146.05
2024-04-09T10:46:26.234Z,99147.93
2024-04-09T10:48:52.675Z,99152.02
2024-04-09T10:51:20.903Z,99150.61
2024-04-09T10:53:48.991Z,99146.86
2024-04-09T10:56:15.314Z,99146.94
2024-04-09T10:58:42.021Z,99148.11
2024-04-09T11:01:08.636Z,99149.11
2024-04-09T11:03:35.591Z,99147.29
2024-04-09T11:06:02.318Z,99146.97
2024-04-09T11:08:28.710Z,99146.01
2024-04-09T11:10:55.056Z,99145.71
2024-04-09T11:13:21.379Z,99140.16
2024-04-09T11:15:47.783Z,99136.40
2024-04-09T11:18:14.313Z,99135.23
2024-04-09T11:20:40.675Z,99132.34
2024-04-09T11:23:07.002Z,99128.58
2024-04-09T11:25:33.332Z,99125.75
2024-04-09T11:27:59.633Z,99121.77
2024-04-09T11:30:26.060Z,99117.96
2024-04-09T11:32:52.640Z,99120.48
2024-04-09T11:35:19.132Z,99117.66
2024-04-09T11:37:45.457Z,99113.45
2024-04-09T11:40:11.803Z,99107.80
2024-04-09T11:42:38.223Z,99107.91
2024-04-09T11:45:04.757Z,99109.72
2024-04-09T11:47:31.247Z,99105.52
2024-04-09T11:49:57.598Z,99105.29
2024-04-09T11:52:23.902Z,99101.54
2024-04-09T11:54:50.297Z,99100.31
2024-04-09T11:57:16.703Z,99094.52
2024-04-09T11:59:43.020Z,99097.95
2024-04-09T12:02:09.350Z,99091.25
2024-04-09T12:04:35.799Z,99082.71
2024-04-09T12:07:02.312Z,99079.23
2024-04-09T12:09:28.813Z,99078.59
2024-04-09T12:11:55.146Z,99071.06
2024-04-09T12:14:21.495Z,99067.48
2024-04-09T12:16:47.789Z,99068.43
2024-04-09T12:19:14.385Z,99067.79
2024-04-09T12:21:41.098Z,99065.60
2024-04-09T12:24:07.612Z,99064.67
2024-04-09T12:26:33.962Z,99059.52
2024-04-09T12:29:00.275Z,99057.90
2024-04-09T12:31:26.620Z,99052.10
2024-04-09T12:33:53.043Z,99048.92
2024-04-09T12:36:19.544Z,99048.34
2024-04-09T12:38:45.870Z,99045.05
2024-04-09T12:41:12.205Z,99040.98
2024-04-09T12:43:38.507Z,99039.64
2024-04-09T12:46:04.827Z,99031.36
2024-04-09T12:48:31.280Z,99024.63
2024-04-09T12:50:57.799Z,99023.02
2024-04-09T12:53:24.126Z,99020.44
2024-04-09T12:55:50.462Z,99017.38
2024-04-09T12:58:16.792Z,99015.23
2024-04-09T13:01:01.514Z,99015.73
2024-04-09T13:03:29.477Z,99011.20
2024-04-09T13:05:56.195Z,99011.17
2024-04-09T13:08:22.737Z,99006.23
2024-04-09T13:10:49.068Z,99003.14
2024-04-09T13:13:15.418Z,99002.08
2024-04-09T13:18:11.188Z,99005.11
2024-04-09T13:20:37.626Z,99001.39
2024-04-09T13:23:06.194Z,98995.17
2024-04-09T13:25:33.727Z,98996.17
2024-04-09T13:28:00.054Z,98994.04
2024-04-09T13:30:26.372Z,98991.61
2024-04-09T13:32:52.815Z,98992.52
2024-04-09T13:35:19.342Z,98991.44
2024-04-09T13:37:45.699Z,98986.40
2024-04-09T13:40:12.055Z,98981.88
2024-04-09T13:42:38.387Z,98984.60
2024-04-09T13:45:04.803Z,98981.09
2024-04-09T13:47:31.411Z,98980.25
2024-04-09T13:49:57.890Z,98975.77
2024-04-09T13:52:24.228Z,98974.42
2024-04-09T13:54:50.533Z,98974.86
2024-04-09T13:57:16.855Z,98972.88
2024-04-09T13:59:43.165Z,98971.85
2024-04-09T14:02:09.574Z,98969.94
2024-04-09T14:04:35.985Z,98970.42
2024-04-09T14:07:02.336Z,98972.32
2024-04-09T14:09:28.654Z,98970.94
2024-04-09T14:11:55.511Z,98972.19
2024-04-09T14:14:22.641Z,98971.36
2024-04-09T14:16:49.138Z,98971.44
2024-04-09T14:19:15.551Z,98969.02
2024-04-09T14:21:42.002Z,98969.79
2024-04-09T14:24:08.343Z,98971.83
2024-04-09T14:26:34.765Z,98966.91
2024-04-09T14:29:01.226Z,98966.17
2024-04-09T14:31:27.570Z,98961.56
2024-04-09T14:33:53.926Z,98963.86
2024-04-09T14:36:20.264Z,98959.93
2024-04-09T14:38:46.593Z,98959.59
2024-04-09T14:41:16.038Z,98958.92
2024-04-09T14:43:43.179Z,98959.90
2024-04-09T14:46:09.529Z,98958.92
2024-04-09T14:48:36.030Z,98956.82
2024-04-09T14:51:02.614Z,98954.55
2024-04-09T14:53:28.953Z,98956.95
2024-04-09T14:55:55.339Z,98953.68
2024-04-09T14:58:21.645Z,98955.97
2024-04-09T15:00:47.963Z,98956.53
2024-04-09T15:03:14.405Z,98952.52
2024-04-09T15:05:40.962Z,98949.17
2024-04-09T15:08:08.206Z,98944.85
2024-04-09T15:10:35.037Z,98943.09
2024-04-09T15:13:01.354Z,98943.58
2024-04-09T15:15:27.716Z,98945.89
2024-04-09T15:17:54.105Z,98947.08
2024-04-09T15:20:20.672Z,98945.13
2024-04-09T15:22:47.054Z,98943.19
2024-04-09T15:25:15.652Z,98940.13
2024-04-09T15:27:43.555Z,98939.95
2024-04-09T15:30:09.994Z,98940.67
2024-04-09T15:32:37.753Z,98940.16
2024-04-09T15:35:06.483Z,98942.16
2024-04-09T15:37:32.832Z,98942.16
2024-04-09T15:39:59.270Z,98939.66
2024-04-09T15:42:25.608Z,98940.29
2024-04-09T15:44:51.988Z,98940.39
2024-04-09T15:47:18.424Z,98939.73
2024-04-09T15:49:44.851Z,98940.58
2024-04-09T15:52:11.171Z,98943.54
2024-04-09T15:54:37.614Z,98949.45
2024-04-09T15:57:03.975Z,98945.68
2024-04-09T15:59:30.419Z,98946.77
2024-04-09T16:01:56.943Z,98945.27
2024-04-09T16:04:23.368Z,98946.02
2024-04-09T16:06:49.681Z,98952.77
2024-04-09T16:09:16.003Z,98953.58
2024-04-09T16:11:42.582Z,98957.88
2024-04-09T16:14:09.032Z,98957.39
2024-04-09T16:16:35.493Z,98956.36
2024-04-09T16:19:02.143Z,98957.03
2024-04-09T16:21:28.654Z,98956.60
2024-04-09T16:23:54.998Z,98959.41
2024-04-09T16:26:21.367Z,98959.39
2024-04-09T16:28:47.787Z,98954.79
2024-04-09T16:31:14.205Z,98951.73
2024-04-09T16:33:40.872Z,98954.77
2024-04-09T16:36:07.385Z,98952.85
2024-04-09T16:38:33.811Z,98955.63
2024-04-09T16:41:00.359Z,98951.86
2024-04-09T16:43:26.787Z,98955.27
2024-04-09T16:45:53.104Z,98957.22
2024-04-09T16:48:19.655Z,98958.36
2024-04-09T16:50:46.953Z,98960.70
2024-04-09T16:53:13.587Z,98961.30
2024-04-09T16:55:39.968Z,98965.29
2024-04-09T16:58:06.319Z,98960.27
2024-04-09T17:00:32.713Z,98963.69
2024-04-09T17:02:59.117Z,98962.49
2024-04-09T17:05:25.496Z,98964.61
2024-04-09T17:07:51.889Z,98966.39
2024-04-09T17:10:18.243Z,98968.53
2024-04-09T17:12:44.572Z,98963.42
2024-04-09T17:15:10.895Z,98967.58
2024-04-09T17:17:37.376Z,98967.91
2024-04-09T17:20:04.084Z,98965.63
2024-04-09T17:22:30.487Z,98972.19
2024-04-09T17:24:56.782Z,98971.69
2024-04-09T17:27:23.121Z,98970.84
2024-04-09T17:29:49.445Z,98969.40
2024-04-09T17:32:15.870Z,98972.13
2024-04-09T17:34:42.240Z,98972.73
2024-04-09T17:37:08.675Z,98976.58
2024-04-09T17:39:35.004Z,98982.48
2024-04-09T17:42:01.325Z,98985.15
2024-04-09T17:44:27.697Z,98987.39
2024-04-09T17:46:54.074Z,98988.73
2024-04-09T17:49:20.516Z,98994.13
2024-04-09T17:51:46.991Z,98994.83
2024-04-09T17:54:13.305Z,98998.73
2024-04-09T17:56:39.676Z,98998.02
2024-04-09T17:59:06.057Z,98998.31
2024-04-09T18:01:32.545Z,98996.99
2024-04-09T18:03:59.235Z,98995.39
2024-04-09T18:06:25.651Z,98998.09
2024-04-09T18:08:51.967Z,98996.96
2024-04-09T18:11:18.347Z,99000.20
2024-04-09T18:13:44.799Z,99000.27
2024-04-09T18:16:11.183Z,99005.02
2024-04-09T18:18:37.573Z,99005.77
2024-04-09T18:21:04.050Z,99007.46
2024-04-09T18:23:30.473Z,99012.91
2024-04-09T18:25:56.832Z,99014.09
2024-04-09T18:28:23.163Z,99015.75
2024-04-09T18:30:49.483Z,99020.81
2024-04-09T18:33:15.872Z,99021.70
2024-04-09T18:35:42.357Z,99021.23
2024-04-09T18:38:08.688Z,99020.38
2024-04-09T18:40:35.022Z,99022.42
2024-04-09T18:43:01.320Z,99021.13
2024-04-09T18:45:27.654Z,99023.84
2024-04-09T18:47:54.177Z,99020.59
2024-04-09T18:50:20.682Z,99023.98
2024-04-09T18:52:47.116Z,99031.61
2024-04-09T18:55:13.759Z,99032.22
2024-04-09T18:57:40.217Z,99032.66
2024-04-09T19:00:06.527Z,99032.13
2024-04-09T19:02:33.004Z,99033.29
2024-04-09T19:04:59.550Z,99031.39
2024-04-09T19:07:25.870Z,99036.80
2024-04-09T19:09:52.198Z,99034.99
2024-04-09T19:12:18.612Z,99039.86
2024-04-09T19:14:44.948Z,99039.05
2024-04-09T19:17:11.342Z,99040.15
2024-04-09T19:19:37.705Z,99038.89
2024-04-09T19:22:04.023Z,99040.67
2024-04-09T19:24:30.337Z,99038.98
2024-04-09T19:26:56.644Z,99035.88
2024-04-09T19:29:23.013Z,99036.60
2024-04-09T19:31:49.686Z,99037.17
2024-04-09T19:34:16.423Z,99035.94
2024-04-09T19:36:42.914Z,99039.17
2024-04-09T19:39:09.215Z,99038.35
2024-04-09T19:41:36.769Z,99038.48
2024-04-09T19:44:13.339Z,99039.30
2024-04-09T19:46:44.241Z,99040.41
2024-04-09T19:49:10.651Z,99044.03
2024-04-09T19:51:36.990Z,99043.59
2024-04-09T19:54:03.349Z,99047.07
2024-04-09T19:56:29.789Z,99044.90
2024-04-09T19:58:56.413Z,99046.18
2024-04-09T20:01:22.830Z,99048.42
2024-04-09T20:03:49.318Z,99050.52
2024-04-09T20:06:15.812Z,99049.86
2024-04-09T20:08:42.122Z,99049.91
2024-04-09T20:11:08.576Z,99056.91
2024-04-09T20:13:34.973Z,99049.66
2024-04-09T20:16:01.277Z,99051.77
2024-04-09T20:18:28.002Z,99052.60
2024-04-09T20:20:54.527Z,99054.54
2024-04-09T20:23:21.207Z,99056.91
2024-04-09T20:25:47.786Z,99056.92
2024-04-09T20:28:14.102Z,99061.27
2024-04-09T20:30:40.432Z,99063.84
2024-04-09T20:33:07.058Z,99065.11
2024-04-09T20:35:40.310Z,99061.38
2024-04-09T20:38:10.727Z,99062.52
2024-04-09T20:40:37.089Z,99065.22
2024-04-09T20:43:03.438Z,99065.27
2024-04-09T20:45:29.766Z,99066.59
2024-04-09T20:47:56.338Z,99065.12
2024-04-09T20:50:22.939Z,99061.98
2024-04-09T20:52:49.336Z,99059.80
2024-04-09T20:55:15.652Z,99061.17
2024-04-09T20:57:41.944Z,99061.30
2024-04-09T21:00:08.256Z,99057.52
2024-04-09T21:02:34.647Z,99059.21
2024-04-09T21:05:01.200Z,99059.35
2024-04-09T21:07:27.610Z,99055.89
2024-04-09T21:09:53.933Z,99054.19
2024-04-09T21:12:20.753Z,99053.36
2024-04-09T21:14:47.153Z,99054.08
2024-04-09T21:17:13.647Z,99054.98
2024-04-09T21:19:40.020Z,99051.90
2024-04-09T21:22:06.323Z,99052.38
2024-04-09T21:24:32.683Z,99054.55
2024-04-09T21:26:59.006Z,99054.98
2024-04-09T21:29:25.460Z,99059.36
2024-04-09T21:31:51.908Z,99058.84
2024-04-09T21:34:18.303Z,99057.73
2024-04-09T21:36:44.742Z,99058.66
2024-04-09T21:39:11.065Z,99059.42
2024-04-09T21:41:37.383Z,99061.09
2024-04-09T21:44:03.795Z,99059.14
2024-04-09T21:46:30.118Z,99061.07
2024-04-09T21:48:56.621Z,99064.26
2024-04-09T21:51:23.015Z,99066.00
2024-04-09T21:53:49.363Z,99067.91
2024-04-09T21:56:15.728Z,99069.15
2024-04-09T21:58:42.061Z,99069.68
2024-04-09T22:01:08.453Z,99070.36
2024-04-09T22:03:34.912Z,99070.20
2024-04-09T22:06:01.326Z,99069.85
2024-04-09T22:08:27.828Z,99070.04
2024-04-09T22:10:54.463Z,99070.07
2024-04-09T22:13:20.912Z,99068.13
2024-04-09T22:15:47.221Z,99068.89
2024-04-09T22:18:13.720Z,99067.55
2024-04-09T22:20:40.308Z,99068.12
2024-04-09T22:23:06.783Z,99065.52
2024-04-09T22:25:33.124Z,99064.17
2024-04-09T22:27:59.450Z,99064.05
2024-04-09T22:30:25.844Z,99066.69
2024-04-09T22:32:52.507Z,99065.44
2024-04-09T22:35:19.064Z,99063.32
2024-04-09T22:37:45.558Z,99061.87
2024-04-09T22:40:11.899Z,99060.75
2024-04-09T22:42:38.271Z,99063.04
2024-04-09T22:45:04.582Z,99064.00
2024-04-09T22:47:31.193Z,99062.58
2024-04-09T22:49:57.681Z,99063.11
2024-04-09T22:52:24.040Z,99065.02
2024-04-09T22:54:50.377Z,99061.95
2024-04-09T22:57:16.707Z,99058.74
2024-04-09T22:59:43.025Z,99054.45
2024-04-09T23:02:09.449Z,99055.71
2024-04-09T23:04:36.098Z,99054.11
2024-04-09T23:07:02.427Z,99054.71
2024-04-09T23:09:28.755Z,99054.98
2024-04-09T23:11:55.193Z,99054.89
2024-04-09T23:14:21.704Z,99053.55
2024-04-09T23:16:48.181Z,99049.21
2024-04-09T23:19:14.595Z,99050.94
2024-04-09T23:21:40.933Z,99050.10
2024-04-09T23:24:07.234Z,99051.30
2024-04-09T23:26:33.645Z,99047.73
2024-04-09T23:28:59.991Z,99048.20
2024-04-09T23:31:26.304Z,99043.80
2024-04-09T23:33:52.774Z,99047.45
2024-04-09T23:36:19.198Z,99045.34
2024-04-09T23:38:45.502Z,99049.84
2024-04-09T23:41:11.856Z,99049.73
2024-04-09T23:43:38.167Z,99057.05
2024-04-09T23:46:04.503Z,99063.08
2024-04-09T23:48:30.935Z,99063.59
2024-04-09T23:50:57.390Z,99064.48
2024-04-09T23:53:23.734Z,99067.15
2024-04-09T23:55:50.085Z,99064.38
2024-04-09T23:58:16.414Z,99061.40
